sensor_id;sensor_type;location;lat;lon;timestamp;pressure;altitude;pressure_sealevel;temperature;humidity
43934;BME280;59081;42.706;23.306;2023-05-10T00:02:21;95332.28;;;7.25;100.00
43934;BME280;59081;42.706;23.306;2023-05-10T00:04:53;95318.31;;;7.16;100.00
43934;BME280;59081;42.706;23.306;2023-05-10T00:07:19;95468.31;;;8.03;100.00
43934;BME280;59081;42.706;23.306;2023-05-10T00:09:45;95326.16;;;7.14;100.00
43934;BME280;59081;42.706;23.306;2023-05-10T00:12:11;95328.44;;;7.19;100.00
43934;BME280;59081;42.706;23.306;2023-05-10T00:14:36;95447.94;;;8.01;100.00
43934;BME280;59081;42.706;23.306;2023-05-10T00:17:02;95364.47;;;7.48;100.00
43934;BME280;59081;42.706;23.306;2023-05-10T00:19:30;95407.31;;;7.65;100.00
43934;BME280;59081;42.706;23.306;2023-05-10T00:21:56;95474.88;;;8.10;100.00
43934;BME280;59081;42.706;23.306;2023-05-10T00:24:27;95320.00;;;7.07;100.00
43934;BME280;59081;42.706;23.306;2023-05-10T00:27:05;95464.81;;;7.99;100.00
43934;BME280;59081;42.706;23.306;2023-05-10T00:29:40;95288.19;;;6.86;100.00
43934;BME280;59081;42.706;23.306;2023-05-10T00:32:05;95366.25;;;7.31;100.00
43934;BME280;59081;42.706;23.306;2023-05-10T00:34:34;95323.97;;;7.02;100.00
43934;BME280;59081;42.706;23.306;2023-05-10T00:37:05;95312.03;;;6.89;100.00
43934;BME280;59081;42.706;23.306;2023-05-10T00:39:33;95487.13;;;8.01;100.00
43934;BME280;59081;42.706;23.306;2023-05-10T00:42:02;95264.53;;;6.69;100.00
43934;BME280;59081;42.706;23.306;2023-05-10T00:44:27;95478.13;;;8.01;100.00
43934;BME280;59081;42.706;23.306;2023-05-10T00:46:59;95292.94;;;6.82;100.00
43934;BME280;59081;42.706;23.306;2023-05-10T00:49:31;95366.78;;;7.23;100.00
43934;BME280;59081;42.706;23.306;2023-05-10T00:51:59;95297.50;;;6.92;100.00
43934;BME280;59081;42.706;23.306;2023-05-10T00:54:25;95325.56;;;6.99;100.00
43934;BME280;59081;42.706;23.306;2023-05-10T00:56:59;95470.22;;;8.07;100.00
43934;BME280;59081;42.706;23.306;2023-05-10T00:59:28;95294.03;;;6.88;100.00
43934;BME280;59081;42.706;23.306;2023-05-10T01:01:57;95255.22;;;6.62;100.00
43934;BME280;59081;42.706;23.306;2023-05-10T01:04:23;95477.34;;;8.00;100.00
43934;BME280;59081;42.706;23.306;2023-05-10T01:06:53;95478.94;;;7.98;100.00
43934;BME280;59081;42.706;23.306;2023-05-10T01:09:24;95336.03;;;7.08;100.00
43934;BME280;59081;42.706;23.306;2023-05-10T01:11:57;95303.88;;;6.82;100.00
43934;BME280;59081;42.706;23.306;2023-05-10T01:14:23;95325.22;;;6.94;100.00
43934;BME280;59081;42.706;23.306;2023-05-10T01:16:52;95293.34;;;6.80;100.00
43934;BME280;59081;42.706;23.306;2023-05-10T01:19:22;95469.13;;;8.00;100.00
43934;BME280;59081;42.706;23.306;2023-05-10T01:27:47;95459.44;;;7.92;100.00
43934;BME280;59081;42.706;23.306;2023-05-10T01:33:57;95323.16;;;7.05;100.00
43934;BME280;59081;42.706;23.306;2023-05-10T01:36:59;95452.38;;;7.95;100.00
43934;BME280;59081;42.706;23.306;2023-05-10T01:39:48;95412.09;;;7.61;100.00
43934;BME280;59081;42.706;23.306;2023-05-10T01:42:29;95262.53;;;6.73;100.00
43934;BME280;59081;42.706;23.306;2023-05-10T01:46:01;95415.28;;;7.56;100.00
43934;BME280;59081;42.706;23.306;2023-05-10T01:48:05;95446.22;;;7.84;100.00
43934;BME280;59081;42.706;23.306;2023-05-10T01:50:48;95254.13;;;6.56;100.00
43934;BME280;59081;42.706;23.306;2023-05-10T01:53:21;95223.88;;;6.37;100.00
43934;BME280;59081;42.706;23.306;2023-05-10T01:55:51;95271.28;;;6.60;100.00
43934;BME280;59081;42.706;23.306;2023-05-10T01:58:36;95264.25;;;6.59;100.00
43934;BME280;59081;42.706;23.306;2023-05-10T02:01:13;95233.94;;;6.43;100.00
43934;BME280;59081;42.706;23.306;2023-05-10T02:03:43;95280.66;;;6.59;100.00
43934;BME280;59081;42.706;23.306;2023-05-10T02:06:10;95291.50;;;6.70;100.00
43934;BME280;59081;42.706;23.306;2023-05-10T02:08:38;95456.53;;;7.76;100.00
43934;BME280;59081;42.706;23.306;2023-05-10T02:11:05;95327.97;;;6.94;100.00
43934;BME280;59081;42.706;23.306;2023-05-10T02:13:32;95442.94;;;7.65;100.00
43934;BME280;59081;42.706;23.306;2023-05-10T02:16:01;95237.66;;;6.26;100.00
43934;BME280;59081;42.706;23.306;2023-05-10T02:18:28;95407.53;;;7.48;100.00
43934;BME280;59081;42.706;23.306;2023-05-10T02:20:56;95361.41;;;7.12;100.00
43934;BME280;59081;42.706;23.306;2023-05-10T02:23:23;95421.25;;;7.48;100.00
43934;BME280;59081;42.706;23.306;2023-05-10T02:25:49;95350.19;;;7.03;100.00
43934;BME280;59081;42.706;23.306;2023-05-10T02:28:17;95359.94;;;7.04;100.00
43934;BME280;59081;42.706;23.306;2023-05-10T02:30:43;95336.09;;;6.71;100.00
43934;BME280;59081;42.706;23.306;2023-05-10T02:33:09;95339.63;;;6.68;100.00
43934;BME280;59081;42.706;23.306;2023-05-10T02:35:37;95403.69;;;7.11;100.00
43934;BME280;59081;42.706;23.306;2023-05-10T02:38:04;95360.38;;;6.65;100.00
43934;BME280;59081;42.706;23.306;2023-05-10T02:40:30;95270.38;;;5.99;100.00
43934;BME280;59081;42.706;23.306;2023-05-10T02:42:57;95286.66;;;6.10;100.00
43934;BME280;59081;42.706;23.306;2023-05-10T02:45:28;95407.63;;;6.73;100.00
43934;BME280;59081;42.706;23.306;2023-05-10T02:47:54;95378.84;;;6.57;100.00
43934;BME280;59081;42.706;23.306;2023-05-10T02:50:21;95245.94;;;5.74;100.00
43934;BME280;59081;42.706;23.306;2023-05-10T02:52:50;95273.56;;;5.90;100.00
43934;BME280;59081;42.706;23.306;2023-05-10T02:55:25;95345.09;;;6.30;100.00
43934;BME280;59081;42.706;23.306;2023-05-10T02:57:56;95405.75;;;6.62;100.00
43934;BME280;59081;42.706;23.306;2023-05-10T03:00:22;95340.56;;;6.13;100.00
43934;BME280;59081;42.706;23.306;2023-05-10T03:02:47;95465.00;;;6.87;100.00
43934;BME280;59081;42.706;23.306;2023-05-10T03:05:13;95304.00;;;5.92;100.00
43934;BME280;59081;42.706;23.306;2023-05-10T03:07:38;95258.19;;;5.59;99.88
43934;BME280;59081;42.706;23.306;2023-05-10T03:10:04;95368.25;;;6.22;100.00
43934;BME280;59081;42.706;23.306;2023-05-10T03:15:42;95239.59;;;5.40;100.00
43934;BME280;59081;42.706;23.306;2023-05-10T03:21:03;95358.53;;;6.14;99.70
43934;BME280;59081;42.706;23.306;2023-05-10T03:23:41;95304.88;;;5.79;100.00
43934;BME280;59081;42.706;23.306;2023-05-10T03:26:08;95394.41;;;6.23;100.00
43934;BME280;59081;42.706;23.306;2023-05-10T03:28:37;95404.81;;;6.39;99.89
43934;BME280;59081;42.706;23.306;2023-05-10T03:31:04;95378.41;;;6.21;99.57
43934;BME280;59081;42.706;23.306;2023-05-10T03:33:31;95342.63;;;6.02;98.34
43934;BME280;59081;42.706;23.306;2023-05-10T03:35:57;95235.75;;;5.34;98.39
43934;BME280;59081;42.706;23.306;2023-05-10T03:38:23;95342.22;;;6.03;98.41
43934;BME280;59081;42.706;23.306;2023-05-10T03:40:48;95473.63;;;6.82;98.28
43934;BME280;59081;42.706;23.306;2023-05-10T03:43:14;95487.28;;;6.85;98.04
43934;BME280;59081;42.706;23.306;2023-05-10T03:45:39;95407.63;;;6.28;98.09
43934;BME280;59081;42.706;23.306;2023-05-10T03:48:05;95331.84;;;5.73;96.95
43934;BME280;59081;42.706;23.306;2023-05-10T03:50:30;95377.41;;;5.98;97.28
43934;BME280;59081;42.706;23.306;2023-05-10T03:52:56;95296.94;;;5.43;97.40
43934;BME280;59081;42.706;23.306;2023-05-10T03:55:22;95403.81;;;6.18;97.77
43934;BME280;59081;42.706;23.306;2023-05-10T03:57:48;95496.03;;;6.70;97.43
43934;BME280;59081;42.706;23.306;2023-05-10T04:00:15;95431.47;;;6.31;97.10
43934;BME280;59081;42.706;23.306;2023-05-10T04:02:40;95401.56;;;6.06;96.58
43934;BME280;59081;42.706;23.306;2023-05-10T04:05:06;95398.88;;;6.03;97.13
43934;BME280;59081;42.706;23.306;2023-05-10T04:07:32;95329.22;;;5.59;96.96
43934;BME280;59081;42.706;23.306;2023-05-10T04:09:57;95450.84;;;6.51;97.49
43934;BME280;59081;42.706;23.306;2023-05-10T04:12:23;95355.63;;;5.83;97.91
43934;BME280;59081;42.706;23.306;2023-05-10T04:14:49;95418.19;;;6.26;99.77
43934;BME280;59081;42.706;23.306;2023-05-10T04:17:14;95264.66;;;5.28;98.96
43934;BME280;59081;42.706;23.306;2023-05-10T04:19:40;95415.47;;;6.26;99.01
43934;BME280;59081;42.706;23.306;2023-05-10T04:22:05;95346.25;;;5.84;99.00
43934;BME280;59081;42.706;23.306;2023-05-10T04:24:31;95340.88;;;5.70;98.25
43934;BME280;59081;42.706;23.306;2023-05-10T04:26:56;95374.00;;;5.79;98.85
43934;BME280;59081;42.706;23.306;2023-05-10T04:29:22;95343.19;;;5.72;98.64
43934;BME280;59081;42.706;23.306;2023-05-10T04:31:47;95406.59;;;6.11;98.89
43934;BME280;59081;42.706;23.306;2023-05-10T04:34:14;95405.50;;;6.05;99.56
43934;BME280;59081;42.706;23.306;2023-05-10T04:36:39;95375.53;;;5.84;98.81
43934;BME280;59081;42.706;23.306;2023-05-10T04:39:05;95344.13;;;5.51;97.45
43934;BME280;59081;42.706;23.306;2023-05-10T04:41:30;95337.53;;;5.45;98.67
43934;BME280;59081;42.706;23.306;2023-05-10T04:43:56;95449.84;;;6.31;98.14
43934;BME280;59081;42.706;23.306;2023-05-10T04:46:21;95329.72;;;5.47;97.91
43934;BME280;59081;42.706;23.306;2023-05-10T04:48:47;95293.13;;;5.30;97.43
43934;BME280;59081;42.706;23.306;2023-05-10T04:51:13;95363.53;;;5.67;98.06
43934;BME280;59081;42.706;23.306;2023-05-10T04:53:38;95353.78;;;5.66;97.91
43934;BME280;59081;42.706;23.306;2023-05-10T04:56:04;95368.13;;;5.84;98.44
43934;BME280;59081;42.706;23.306;2023-05-10T04:58:30;95434.94;;;6.35;98.81
43934;BME280;59081;42.706;23.306;2023-05-10T05:00:56;95400.50;;;5.89;97.68
43934;BME280;59081;42.706;23.306;2023-05-10T05:03:21;95375.13;;;5.89;97.57
43934;BME280;59081;42.706;23.306;2023-05-10T05:05:47;95356.41;;;5.80;97.53
43934;BME280;59081;42.706;23.306;2023-05-10T05:08:13;95320.25;;;5.62;99.13
43934;BME280;59081;42.706;23.306;2023-05-10T05:10:38;95516.25;;;6.86;98.86
43934;BME280;59081;42.706;23.306;2023-05-10T05:13:04;95406.97;;;6.17;98.56
43934;BME280;59081;42.706;23.306;2023-05-10T05:15:30;95336.91;;;5.78;99.31
43934;BME280;59081;42.706;23.306;2023-05-10T05:17:55;95416.97;;;6.34;98.75
43934;BME280;59081;42.706;23.306;2023-05-10T05:20:21;95338.81;;;5.85;99.65
43934;BME280;59081;42.706;23.306;2023-05-10T05:22:47;95520.81;;;7.00;98.56
43934;BME280;59081;42.706;23.306;2023-05-10T05:25:12;95511.00;;;7.03;98.23
43934;BME280;59081;42.706;23.306;2023-05-10T05:27:38;95407.16;;;6.40;98.14
43934;BME280;59081;42.706;23.306;2023-05-10T05:30:04;95346.22;;;5.88;97.91
43934;BME280;59081;42.706;23.306;2023-05-10T05:32:30;95525.91;;;6.98;98.56
43934;BME280;59081;42.706;23.306;2023-05-10T05:34:55;95468.25;;;6.71;99.34
43934;BME280;59081;42.706;23.306;2023-05-10T05:37:21;95468.63;;;6.73;100.00
43934;BME280;59081;42.706;23.306;2023-05-10T05:39:48;95346.94;;;5.96;98.89
43934;BME280;59081;42.706;23.306;2023-05-10T05:42:13;95533.28;;;7.05;98.34
43934;BME280;59081;42.706;23.306;2023-05-10T05:44:40;95390.53;;;6.20;99.62
43934;BME280;59081;42.706;23.306;2023-05-10T05:47:05;95388.19;;;6.19;98.92
43934;BME280;59081;42.706;23.306;2023-05-10T05:49:31;95348.63;;;5.79;98.81
43934;BME280;59081;42.706;23.306;2023-05-10T05:52:03;95256.56;;;5.17;97.95
43934;BME280;59081;42.706;23.306;2023-05-10T05:54:30;95529.81;;;6.97;99.32
43934;BME280;59081;42.706;23.306;2023-05-10T05:57:00;95340.81;;;5.77;98.01
43934;BME280;59081;42.706;23.306;2023-05-10T05:59:26;95347.81;;;5.82;99.52
43934;BME280;59081;42.706;23.306;2023-05-10T06:01:52;95457.91;;;6.48;100.00
43934;BME280;59081;42.706;23.306;2023-05-10T06:04:18;95444.63;;;6.47;100.00
43934;BME280;59081;42.706;23.306;2023-05-10T06:06:44;95435.66;;;6.43;99.91
43934;BME280;59081;42.706;23.306;2023-05-10T06:09:10;95361.69;;;6.09;99.38
43934;BME280;59081;42.706;23.306;2023-05-10T06:11:37;95480.41;;;6.67;99.66
43934;BME280;59081;42.706;23.306;2023-05-10T06:14:04;95423.97;;;6.39;99.00
43934;BME280;59081;42.706;23.306;2023-05-10T06:16:30;95491.22;;;6.84;100.00
43934;BME280;59081;42.706;23.306;2023-05-10T06:18:56;95297.28;;;5.52;98.98
43934;BME280;59081;42.706;23.306;2023-05-10T06:21:21;95403.41;;;6.20;98.83
43934;BME280;59081;42.706;23.306;2023-05-10T06:23:47;95347.03;;;5.81;99.25
43934;BME280;59081;42.706;23.306;2023-05-10T06:26:13;95435.66;;;6.43;99.93
43934;BME280;59081;42.706;23.306;2023-05-10T06:28:39;95414.59;;;6.40;100.00
43934;BME280;59081;42.706;23.306;2023-05-10T06:31:05;95342.38;;;5.78;97.92
43934;BME280;59081;42.706;23.306;2023-05-10T06:33:32;95450.41;;;6.56;98.10
43934;BME280;59081;42.706;23.306;2023-05-10T06:35:57;95542.00;;;7.33;98.33
43934;BME280;59081;42.706;23.306;2023-05-10T06:38:23;95405.19;;;6.41;97.43
43934;BME280;59081;42.706;23.306;2023-05-10T06:40:48;95486.47;;;6.92;96.34
43934;BME280;59081;42.706;23.306;2023-05-10T06:43:14;95554.94;;;7.29;96.34
43934;BME280;59081;42.706;23.306;2023-05-10T06:45:40;95549.06;;;7.31;96.24
43934;BME280;59081;42.706;23.306;2023-05-10T06:48:06;95554.94;;;7.33;95.64
43934;BME280;59081;42.706;23.306;2023-05-10T06:50:32;95384.97;;;6.27;95.66
43934;BME280;59081;42.706;23.306;2023-05-10T06:52:58;95387.28;;;6.33;95.08
43934;BME280;59081;42.706;23.306;2023-05-10T06:55:25;95428.47;;;6.59;93.84
43934;BME280;59081;42.706;23.306;2023-05-10T06:57:51;95422.97;;;6.63;94.12
43934;BME280;59081;42.706;23.306;2023-05-10T07:00:17;95402.38;;;6.48;93.46
43934;BME280;59081;42.706;23.306;2023-05-10T07:02:43;95496.09;;;7.07;92.07
43934;BME280;59081;42.706;23.306;2023-05-10T07:05:09;95444.03;;;6.70;91.79
43934;BME280;59081;42.706;23.306;2023-05-10T07:07:35;95368.09;;;6.36;92.90
43934;BME280;59081;42.706;23.306;2023-05-10T07:10:01;95432.56;;;6.82;91.26
43934;BME280;59081;42.706;23.306;2023-05-10T07:12:26;95480.84;;;7.06;91.71
43934;BME280;59081;42.706;23.306;2023-05-10T07:14:52;95467.28;;;6.92;90.59
43934;BME280;59081;42.706;23.306;2023-05-10T07:17:17;95499.84;;;7.24;91.05
43934;BME280;59081;42.706;23.306;2023-05-10T07:19:43;95516.19;;;7.31;90.80
43934;BME280;59081;42.706;23.306;2023-05-10T07:22:09;95394.44;;;6.60;90.21
43934;BME280;59081;42.706;23.306;2023-05-10T07:24:34;95389.38;;;6.59;91.09
43934;BME280;59081;42.706;23.306;2023-05-10T07:27:00;95372.25;;;6.51;90.73
43934;BME280;59081;42.706;23.306;2023-05-10T07:29:26;95567.31;;;7.82;91.04
43934;BME280;59081;42.706;23.306;2023-05-10T07:31:51;95480.53;;;7.34;90.99
43934;BME280;59081;42.706;23.306;2023-05-10T07:34:17;95489.91;;;7.37;90.86
43934;BME280;59081;42.706;23.306;2023-05-10T07:36:42;95341.94;;;6.35;89.89
43934;BME280;59081;42.706;23.306;2023-05-10T07:39:08;95426.56;;;6.94;90.18
43934;BME280;59081;42.706;23.306;2023-05-10T07:41:33;95348.19;;;6.36;88.42
43934;BME280;59081;42.706;23.306;2023-05-10T07:43:59;95561.41;;;7.84;87.67
43934;BME280;59081;42.706;23.306;2023-05-10T07:46:24;95444.84;;;7.08;87.64
43934;BME280;59081;42.706;23.306;2023-05-10T07:48:50;95455.28;;;7.16;87.78
43934;BME280;59081;42.706;23.306;2023-05-10T07:51:15;95489.19;;;7.29;87.17
43934;BME280;59081;42.706;23.306;2023-05-10T07:53:41;95574.91;;;8.01;87.72
43934;BME280;59081;42.706;23.306;2023-05-10T07:56:39;95373.19;;;6.75;88.12
43934;BME280;59081;42.706;23.306;2023-05-10T07:59:09;95557.31;;;7.99;87.31
43934;BME280;59081;42.706;23.306;2023-05-10T08:01:35;95464.47;;;7.37;87.28
43934;BME280;59081;42.706;23.306;2023-05-10T08:04:01;95409.41;;;6.90;85.84
43934;BME280;59081;42.706;23.306;2023-05-10T08:06:27;95431.81;;;7.15;86.32
43934;BME280;59081;42.706;23.306;2023-05-10T08:08:55;95583.44;;;8.11;86.16
43934;BME280;59081;42.706;23.306;2023-05-10T08:11:21;95572.00;;;8.16;86.38
43934;BME280;59081;42.706;23.306;2023-05-10T08:13:47;95559.56;;;8.08;85.53
43934;BME280;59081;42.706;23.306;2023-05-10T08:16:13;95569.16;;;8.23;85.47
43934;BME280;59081;42.706;23.306;2023-05-10T08:18:39;95377.16;;;7.05;85.29
43934;BME280;59081;42.706;23.306;2023-05-10T08:21:05;95590.59;;;8.31;83.92
43934;BME280;59081;42.706;23.306;2023-05-10T08:23:31;95487.47;;;7.77;83.98
43934;BME280;59081;42.706;23.306;2023-05-10T08:25:56;95463.47;;;7.84;84.21
43934;BME280;59081;42.706;23.306;2023-05-10T08:28:22;95439.84;;;7.63;84.61
43934;BME280;59081;42.706;23.306;2023-05-10T08:30:49;95444.38;;;7.77;84.90
43934;BME280;59081;42.706;23.306;2023-05-10T08:33:15;95589.31;;;8.70;85.85
43934;BME280;59081;42.706;23.306;2023-05-10T08:35:41;95418.00;;;7.56;86.53
43934;BME280;59081;42.706;23.306;2023-05-10T08:38:06;95498.84;;;8.06;87.60
43934;BME280;59081;42.706;23.306;2023-05-10T08:40:32;95588.34;;;8.57;87.65
43934;BME280;59081;42.706;23.306;2023-05-10T08:43:08;95585.28;;;8.51;88.56
43934;BME280;59081;42.706;23.306;2023-05-10T08:45:37;95355.28;;;7.01;88.32
43934;BME280;59081;42.706;23.306;2023-05-10T08:48:05;95538.13;;;7.99;87.88
43934;BME280;59081;42.706;23.306;2023-05-10T08:50:31;95347.69;;;6.82;88.70
43934;BME280;59081;42.706;23.306;2023-05-10T08:53:00;95589.44;;;8.32;88.46
43934;BME280;59081;42.706;23.306;2023-05-10T08:55:26;95447.09;;;7.47;88.89
43934;BME280;59081;42.706;23.306;2023-05-10T08:57:53;95448.34;;;7.42;89.94
43934;BME280;59081;42.706;23.306;2023-05-10T09:00:19;95495.63;;;7.80;89.33
43934;BME280;59081;42.706;23.306;2023-05-10T09:02:45;95365.06;;;7.02;89.08
43934;BME280;59081;42.706;23.306;2023-05-10T09:05:12;95458.81;;;7.51;87.88
43934;BME280;59081;42.706;23.306;2023-05-10T09:07:37;95505.34;;;7.88;88.61
43934;BME280;59081;42.706;23.306;2023-05-10T09:10:04;95539.41;;;8.21;88.46
43934;BME280;59081;42.706;23.306;2023-05-10T09:12:32;95536.69;;;8.18;88.53
43934;BME280;59081;42.706;23.306;2023-05-10T09:14:59;95526.00;;;8.27;86.99
43934;BME280;59081;42.706;23.306;2023-05-10T09:17:25;95389.16;;;7.45;85.90
43934;BME280;59081;42.706;23.306;2023-05-10T09:19:59;95440.72;;;7.87;86.42
43934;BME280;59081;42.706;23.306;2023-05-10T09:22:26;95504.13;;;8.20;87.13
43934;BME280;59081;42.706;23.306;2023-05-10T09:25:13;95572.19;;;8.62;86.25
43934;BME280;59081;42.706;23.306;2023-05-10T09:27:46;95421.25;;;7.78;85.24
43934;BME280;59081;42.706;23.306;2023-05-10T09:30:30;95428.34;;;7.76;85.64
43934;BME280;59081;42.706;23.306;2023-05-10T09:32:57;95485.66;;;8.24;85.34
43934;BME280;59081;42.706;23.306;2023-05-10T09:35:25;95470.88;;;7.87;85.14
43934;BME280;59081;42.706;23.306;2023-05-10T09:37:53;95494.09;;;8.10;84.52
43934;BME280;59081;42.706;23.306;2023-05-10T09:40:25;95528.75;;;8.27;85.20
43934;BME280;59081;42.706;23.306;2023-05-10T09:42:58;95567.94;;;8.58;85.75
43934;BME280;59081;42.706;23.306;2023-05-10T09:45:26;95354.56;;;7.27;85.35
43934;BME280;59081;42.706;23.306;2023-05-10T09:47:52;95576.31;;;8.74;85.98
43934;BME280;59081;42.706;23.306;2023-05-10T09:50:19;95473.56;;;8.18;84.93
43934;BME280;59081;42.706;23.306;2023-05-10T09:52:53;95455.19;;;8.15;84.29
43934;BME280;59081;42.706;23.306;2023-05-10T09:55:21;95385.69;;;7.71;85.47
43934;BME280;59081;42.706;23.306;2023-05-10T09:57:48;95562.31;;;8.92;85.51
43934;BME280;59081;42.706;23.306;2023-05-10T10:00:18;95455.69;;;8.36;85.68
43934;BME280;59081;42.706;23.306;2023-05-10T10:02:46;95417.00;;;8.27;85.96
43934;BME280;59081;42.706;23.306;2023-05-10T10:05:12;95568.78;;;9.28;84.64
43934;BME280;59081;42.706;23.306;2023-05-10T10:07:37;95371.81;;;8.09;83.33
43934;BME280;59081;42.706;23.306;2023-05-10T10:10:03;95553.41;;;9.31;82.58
43934;BME280;59081;42.706;23.306;2023-05-10T10:12:30;95446.09;;;8.71;82.88
43934;BME280;59081;42.706;23.306;2023-05-10T10:14:56;95445.31;;;8.71;82.36
43934;BME280;59081;42.706;23.306;2023-05-10T10:17:24;95554.00;;;9.42;82.61
43934;BME280;59081;42.706;23.306;2023-05-10T10:19:53;95547.09;;;9.34;81.98
43934;BME280;59081;42.706;23.306;2023-05-10T10:22:20;95498.88;;;9.06;81.86
43934;BME280;59081;42.706;23.306;2023-05-10T10:24:45;95425.94;;;8.58;82.97
43934;BME280;59081;42.706;23.306;2023-05-10T10:29:49;95382.56;;;8.23;81.89
43934;BME280;59081;42.706;23.306;2023-05-10T10:35:10;95441.38;;;8.72;81.97
43934;BME280;59081;42.706;23.306;2023-05-10T10:37:46;95547.69;;;9.65;81.76
43934;BME280;59081;42.706;23.306;2023-05-10T10:40:26;95542.75;;;9.76;81.94
43934;BME280;59081;42.706;23.306;2023-05-10T10:42:52;95410.50;;;8.88;81.12
43934;BME280;59081;42.706;23.306;2023-05-10T10:45:19;95350.72;;;8.52;79.91
43934;BME280;59081;42.706;23.306;2023-05-10T10:47:45;95509.47;;;9.51;79.73
43934;BME280;59081;42.706;23.306;2023-05-10T10:50:11;95468.75;;;9.22;79.99
43934;BME280;59081;42.706;23.306;2023-05-10T10:52:45;95446.09;;;8.95;80.06
43934;BME280;59081;42.706;23.306;2023-05-10T10:57:48;95405.78;;;8.88;80.02
43934;BME280;59081;42.706;23.306;2023-05-10T11:00:36;95428.47;;;8.92;80.59
43934;BME280;59081;42.706;23.306;2023-05-10T11:03:06;95368.31;;;8.78;79.95
43934;BME280;59081;42.706;23.306;2023-05-10T11:05:49;95472.41;;;9.35;78.58
43934;BME280;59081;42.706;23.306;2023-05-10T11:10:52;95323.97;;;8.56;78.40
43934;BME280;59081;42.706;23.306;2023-05-10T11:13:43;95552.69;;;10.09;77.84
43934;BME280;59081;42.706;23.306;2023-05-10T11:16:24;95497.41;;;9.84;77.71
43934;BME280;59081;42.706;23.306;2023-05-10T11:21:22;95439.41;;;9.35;77.48
43934;BME280;59081;42.706;23.306;2023-05-10T11:23:52;95534.91;;;9.94;77.43
43934;BME280;59081;42.706;23.306;2023-05-10T11:26:25;95475.81;;;9.63;78.36
43934;BME280;59081;42.706;23.306;2023-05-10T11:28:52;95560.47;;;10.15;78.04
43934;BME280;59081;42.706;23.306;2023-05-10T11:31:20;95318.38;;;8.63;77.21
43934;BME280;59081;42.706;23.306;2023-05-10T11:33:50;95364.22;;;8.86;77.67
43934;BME280;59081;42.706;23.306;2023-05-10T11:36:35;95539.34;;;10.08;78.83
43934;BME280;59081;42.706;23.306;2023-05-10T11:39:01;95440.06;;;9.43;78.39
43934;BME280;59081;42.706;23.306;2023-05-10T11:41:28;95531.09;;;9.88;78.41
43934;BME280;59081;42.706;23.306;2023-05-10T11:43:55;95497.41;;;9.64;79.06
43934;BME280;59081;42.706;23.306;2023-05-10T11:46:23;95491.97;;;9.61;79.05
43934;BME280;59081;42.706;23.306;2023-05-10T11:48:52;95360.41;;;8.80;79.46
43934;BME280;59081;42.706;23.306;2023-05-10T11:51:22;95494.38;;;9.78;79.51
43934;BME280;59081;42.706;23.306;2023-05-10T11:53:55;95454.94;;;9.46;79.38
43934;BME280;59081;42.706;23.306;2023-05-10T11:56:21;95387.41;;;9.05;79.62
43934;BME280;59081;42.706;23.306;2023-05-10T11:58:57;95349.28;;;8.87;79.53
43934;BME280;59081;42.706;23.306;2023-05-10T12:01:27;95398.28;;;9.12;78.97
43934;BME280;59081;42.706;23.306;2023-05-10T12:03:53;95537.78;;;10.07;79.18
43934;BME280;59081;42.706;23.306;2023-05-10T12:06:20;95387.19;;;8.96;79.79
43934;BME280;59081;42.706;23.306;2023-05-10T12:08:47;95385.72;;;8.91;80.13
43934;BME280;59081;42.706;23.306;2023-05-10T12:11:13;95465.94;;;9.46;80.33
43934;BME280;59081;42.706;23.306;2023-05-10T12:13:41;95455.06;;;9.38;79.71
43934;BME280;59081;42.706;23.306;2023-05-10T12:18:41;95401.22;;;9.21;80.63
43934;BME280;59081;42.706;23.306;2023-05-10T12:21:09;95410.13;;;9.29;79.08
43934;BME280;59081;42.706;23.306;2023-05-10T12:23:35;95486.88;;;9.79;79.67
43934;BME280;59081;42.706;23.306;2023-05-10T12:26:04;95520.69;;;10.19;79.58
43934;BME280;59081;42.706;23.306;2023-05-10T12:28:31;95397.56;;;9.48;78.89
43934;BME280;59081;42.706;23.306;2023-05-10T12:30:57;95460.75;;;9.87;78.44
43934;BME280;59081;42.706;23.306;2023-05-10T12:33:24;95397.22;;;9.46;78.01
43934;BME280;59081;42.706;23.306;2023-05-10T12:35:51;95292.09;;;8.82;79.11
43934;BME280;59081;42.706;23.306;2023-05-10T12:38:33;95357.72;;;9.36;78.58
43934;BME280;59081;42.706;23.306;2023-05-10T12:41:03;95421.94;;;9.65;78.94
43934;BME280;59081;42.706;23.306;2023-05-10T12:43:29;95428.19;;;9.86;78.51
43934;BME280;59081;42.706;23.306;2023-05-10T12:45:55;95439.97;;;9.86;79.35
43934;BME280;59081;42.706;23.306;2023-05-10T12:48:21;95351.19;;;9.30;79.15
43934;BME280;59081;42.706;23.306;2023-05-10T12:50:46;95403.41;;;9.69;78.10
43934;BME280;59081;42.706;23.306;2023-05-10T12:53:15;95487.13;;;10.04;78.33
43934;BME280;59081;42.706;23.306;2023-05-10T12:55:44;95333.81;;;8.97;77.77
43934;BME280;59081;42.706;23.306;2023-05-10T12:58:10;95410.16;;;9.65;77.74
43934;BME280;59081;42.706;23.306;2023-05-10T13:00:35;95417.91;;;9.70;77.72
43934;BME280;59081;42.706;23.306;2023-05-10T13:03:03;95404.72;;;9.81;77.83
43934;BME280;59081;42.706;23.306;2023-05-10T13:05:31;95313.41;;;9.34;77.52
43934;BME280;59081;42.706;23.306;2023-05-10T13:07:57;95400.09;;;9.94;77.48
43934;BME280;59081;42.706;23.306;2023-05-10T13:10:22;95404.66;;;10.01;77.36
43934;BME280;59081;42.706;23.306;2023-05-10T13:12:49;95332.44;;;9.61;76.89
43934;BME280;59081;42.706;23.306;2023-05-10T13:15:14;95379.31;;;9.73;77.89
43934;BME280;59081;42.706;23.306;2023-05-10T13:17:40;95465.66;;;10.35;77.59
43934;BME280;59081;42.706;23.306;2023-05-10T13:20:08;95489.41;;;10.45;77.61
43934;BME280;59081;42.706;23.306;2023-05-10T13:22:35;95317.63;;;9.38;77.83
43934;BME280;59081;42.706;23.306;2023-05-10T13:25:00;95344.16;;;9.65;78.36
43934;BME280;59081;42.706;23.306;2023-05-10T13:27:26;95455.41;;;10.36;77.21
43934;BME280;59081;42.706;23.306;2023-05-10T13:29:51;95351.28;;;9.62;77.94
43934;BME280;59081;42.706;23.306;2023-05-10T13:32:17;95401.34;;;9.90;78.13
43934;BME280;59081;42.706;23.306;2023-05-10T13:34:42;95471.94;;;10.36;78.53